Time;durP1;ratioP1;P1;durP2;ratioP2;P2;SDS_P1;SDS_P2;PMS_P1;PMS_P2;Temp;Humidity;BMP_temperature;BMP_pressure;BME280_temperature;BME280_humidity;BME280_pressure;Samples;Min_cycle;Max_cycle;Signal;HPM_P1;HPM_P2
2021/09/11 00:01:08;;;;;;;5.07;3.83;;;19.40;99.90;;;;;;5036423;28;20045;-86
2021/09/11 00:03:34;;;;;;;8.90;3.97;;;19.40;99.90;;;;;;5037388;28;20033;-87
2021/09/11 00:05:59;;;;;;;5.25;3.80;;;19.40;99.90;;;;;;5037228;28;20048;-86
2021/09/11 00:08:25;;;;;;;7.25;3.60;;;19.40;99.90;;;;;;5037088;28;20063;-86
2021/09/11 00:10:51;;;;;;;8.10;3.75;;;19.40;99.90;;;;;;5036429;28;20559;-86
2021/09/11 00:13:16;;;;;;;6.53;3.72;;;19.40;99.90;;;;;;5054702;28;20029;-86
2021/09/11 00:15:42;;;;;;;6.22;3.33;;;19.40;99.90;;;;;;5036725;28;20063;-86
2021/09/11 00:18:08;;;;;;;6.63;3.83;;;19.40;99.90;;;;;;5036850;28;20064;-86
2021/09/11 00:20:33;;;;;;;7.22;4.03;;;19.40;99.90;;;;;;5053967;28;20033;-86
2021/09/11 00:23:00;;;;;;;6.75;4.13;;;19.40;99.90;;;;;;5036418;28;20532;-86
2021/09/11 00:25:28;;;;;;;6.18;4.18;;;19.40;99.90;;;;;;5036547;28;20029;-86
2021/09/11 00:27:53;;;;;;;8.68;3.90;;;19.40;99.90;;;;;;5036561;28;20028;-86
2021/09/11 00:30:19;;;;;;;8.05;3.92;;;19.40;99.90;;;;;;5035819;28;20029;-86
2021/09/11 00:32:45;;;;;;;7.97;4.35;;;19.50;99.90;;;;;;5036391;28;20061;-86
2021/09/11 00:35:16;;;;;;;7.55;4.10;;;19.50;99.90;;;;;;5036341;28;20032;-86
2021/09/11 00:37:42;;;;;;;4.55;3.50;;;19.50;99.90;;;;;;5036333;28;20044;-86
2021/09/11 00:40:10;;;;;;;7.32;3.78;;;19.40;99.90;;;;;;5035714;28;20056;-86
2021/09/11 00:42:36;;;;;;;8.27;4.00;;;19.50;99.90;;;;;;5035717;28;20033;-86
2021/09/11 00:45:02;;;;;;;7.82;3.95;;;19.50;99.90;;;;;;5036383;28;20025;-86
2021/09/11 00:47:28;;;;;;;5.65;4.07;;;19.50;99.90;;;;;;5054065;28;20470;-86
2021/09/11 00:49:53;;;;;;;7.80;4.45;;;19.50;99.90;;;;;;5053384;28;20021;-86
2021/09/11 00:52:21;;;;;;;8.00;4.57;;;19.50;99.90;;;;;;5035921;28;20024;-85
2021/09/11 00:54:47;;;;;;;8.80;5.10;;;19.50;99.90;;;;;;5035961;28;20543;-86
2021/09/11 00:57:13;;;;;;;7.75;4.97;;;19.50;99.90;;;;;;5054179;28;20031;-86
2021/09/11 00:59:39;;;;;;;7.60;4.75;;;19.40;99.90;;;;;;5035837;28;20116;-86
2021/09/11 01:02:04;;;;;;;9.57;5.43;;;19.40;99.90;;;;;;5036163;28;20057;-86
2021/09/11 01:04:30;;;;;;;8.10;4.80;;;19.40;99.90;;;;;;5036312;28;20531;-86
2021/09/11 01:06:57;;;;;;;8.20;5.82;;;19.50;99.90;;;;;;5036280;28;20127;-86
2021/09/11 01:09:26;;;;;;;10.77;6.20;;;19.40;99.90;;;;;;5035639;28;20025;-86
2021/09/11 01:11:52;;;;;;;;;;;19.40;99.90;;;;;;5054742;28;20044;-86
2021/09/11 01:14:18;;;;;;;11.02;5.40;;;19.50;99.90;;;;;;5036007;28;19905;-86
2021/09/11 01:16:43;;;;;;;12.20;6.35;;;19.50;99.90;;;;;;5036176;28;20033;-87
2021/09/11 01:19:09;;;;;;;10.98;5.90;;;19.40;99.90;;;;;;5053461;28;20067;-86
2021/09/11 01:21:35;;;;;;;8.05;5.60;;;19.50;99.90;;;;;;5036195;28;20024;-86
2021/09/11 01:24:01;;;;;;;7.95;5.47;;;19.50;99.90;;;;;;5053916;28;20025;-86
2021/09/11 01:26:26;;;;;;;10.43;6.30;;;19.50;99.90;;;;;;5035864;28;20017;-86
2021/09/11 01:28:52;;;;;;;11.43;6.22;;;19.50;99.90;;;;;;5035254;28;20029;-87
2021/09/11 01:31:18;;;;;;;9.52;6.43;;;19.50;99.90;;;;;;5035432;28;20056;-86
2021/09/11 01:33:44;;;;;;;9.70;6.60;;;19.50;99.90;;;;;;5036002;28;20381;-86
2021/09/11 01:36:09;;;;;;;11.68;7.78;;;19.50;99.90;;;;;;5035768;28;20020;-86
2021/09/11 01:38:35;;;;;;;14.13;8.18;;;19.50;99.90;;;;;;5053573;28;20103;-86
2021/09/11 01:41:00;;;;;;;12.98;9.07;;;19.50;99.90;;;;;;5035185;28;20544;-86
2021/09/11 01:43:31;;;;;;;12.80;8.57;;;19.50;99.90;;;;;;5035676;28;20025;-86
2021/09/11 01:45:57;;;;;;;17.02;10.30;;;19.50;99.90;;;;;;5053730;28;20053;-86
2021/09/11 01:48:23;;;;;;;13.73;10.77;;;19.50;99.90;;;;;;5036342;28;20051;-86
2021/09/11 01:50:49;;;;;;;15.02;10.50;;;19.50;99.90;;;;;;5036987;28;20115;-86
2021/09/11 01:53:15;;;;;;;15.48;11.30;;;19.50;99.90;;;;;;5053385;28;20025;-86
2021/09/11 01:55:40;;;;;;;17.00;10.77;;;19.50;99.90;;;;;;5053830;28;20383;-86
2021/09/11 01:58:06;;;;;;;14.02;11.40;;;19.50;99.90;;;;;;5052827;28;20107;-86
2021/09/11 02:00:31;;;;;;;15.20;11.38;;;19.50;99.90;;;;;;5050532;28;20021;-86
2021/09/11 02:02:57;;;;;;;14.63;11.20;;;19.50;99.90;;;;;;5052540;28;20099;-86
2021/09/11 02:05:23;;;;;;;14.77;11.10;;;19.50;99.90;;;;;;5034996;28;20024;-86
2021/09/11 02:07:49;;;;;;;16.42;11.73;;;19.50;99.90;;;;;;5034682;28;20120;-86
2021/09/11 02:10:18;;;;;;;15.10;11.00;;;19.50;99.90;;;;;;5051932;28;20108;-86
2021/09/11 02:12:44;;;;;;;17.05;12.05;;;19.50;99.90;;;;;;5034346;28;20489;-86
2021/09/11 02:15:10;;;;;;;17.42;13.00;;;19.50;99.90;;;;;;5034569;28;20078;-86
2021/09/11 02:17:37;;;;;;;20.73;14.70;;;19.50;99.90;;;;;;5052328;28;20045;-86
2021/09/11 02:20:03;;;;;;;15.05;12.75;;;19.40;99.90;;;;;;5033926;28;20591;-86
2021/09/11 02:22:29;;;;;;;23.30;14.38;;;19.40;99.90;;;;;;5034131;28;20024;-86
2021/09/11 02:24:55;;;;;;;20.48;14.52;;;19.40;99.90;;;;;;5034403;28;20074;-86
2021/09/11 02:27:20;;;;;;;19.60;15.40;;;19.40;99.90;;;;;;5050950;28;20200;-86
2021/09/11 02:29:46;;;;;;;19.52;15.75;;;19.40;99.90;;;;;;5033782;28;20021;-86
2021/09/11 02:32:13;;;;;;;19.02;14.57;;;19.40;99.90;;;;;;5052000;28;20021;-85
2021/09/11 02:34:39;;;;;;;21.17;15.25;;;19.40;99.90;;;;;;5034156;28;20493;-86
2021/09/11 02:37:05;;;;;;;19.85;15.30;;;19.40;99.90;;;;;;5033654;28;20048;-85
2021/09/11 02:39:31;;;;;;;21.30;15.35;;;19.40;99.90;;;;;;5032724;28;20035;-85
2021/09/11 02:41:56;;;;;;;17.00;12.88;;;19.30;99.90;;;;;;5033761;28;20036;-86
2021/09/11 02:44:22;;;;;;;20.50;15.25;;;19.30;99.90;;;;;;5034232;28;20025;-86
2021/09/11 02:46:48;;;;;;;19.55;15.05;;;19.30;99.90;;;;;;5052115;28;20021;-85
2021/09/11 02:49:13;;;;;;;18.90;14.73;;;19.30;99.90;;;;;;5033452;28;20390;-86
2021/09/11 02:51:39;;;;;;;18.42;14.07;;;19.30;99.90;;;;;;5033904;28;20078;-86
2021/09/11 02:54:05;;;;;;;20.75;15.10;;;19.30;99.90;;;;;;5050623;28;20020;-86
2021/09/11 02:56:30;;;;;;;21.02;15.20;;;19.30;99.90;;;;;;5050688;28;20028;-86
2021/09/11 02:58:56;;;;;;;17.13;14.02;;;19.30;99.90;;;;;;5033394;28;20036;-86
2021/09/11 03:01:23;;;;;;;22.42;16.35;;;19.30;99.90;;;;;;5051667;28;20135;-86
2021/09/11 03:03:48;;;;;;;19.58;15.23;;;19.30;99.90;;;;;;5050261;28;20017;-86
2021/09/11 03:06:14;;;;;;;19.52;14.23;;;19.30;99.90;;;;;;5033873;28;20032;-86
2021/09/11 03:08:40;;;;;;;21.88;16.23;;;19.30;99.90;;;;;;5050666;28;20031;-86
2021/09/11 03:11:05;;;;;;;17.70;14.75;;;19.30;99.90;;;;;;5034168;28;20055;-85
2021/09/11 03:13:31;;;;;;;21.25;16.13;;;19.30;99.90;;;;;;5038322;28;20025;-85
2021/09/11 03:15:57;;;;;;;18.90;15.45;;;19.20;99.90;;;;;;5037958;28;20108;-85
2021/09/11 03:18:23;;;;;;;19.98;13.65;;;19.20;99.90;;;;;;5037954;28;20025;-85
2021/09/11 03:20:49;;;;;;;20.30;14.77;;;19.30;99.90;;;;;;5055488;28;20486;-85
2021/09/11 03:23:14;;;;;;;18.80;14.65;;;19.20;99.90;;;;;;5055839;28;20021;-87
2021/09/11 03:25:41;;;;;;;19.40;14.55;;;19.20;99.90;;;;;;5037898;28;20070;-86
2021/09/11 03:28:07;;;;;;;22.67;15.10;;;19.20;99.90;;;;;;5055698;28;20049;-85
2021/09/11 03:30:32;;;;;;;20.92;15.68;;;19.20;99.90;;;;;;5037250;28;20052;-86
2021/09/11 03:32:58;;;;;;;21.10;15.75;;;19.20;99.90;;;;;;5037494;28;20116;-86
2021/09/11 03:35:24;;;;;;;22.30;16.58;;;19.20;99.90;;;;;;5037727;28;20560;-85
2021/09/11 03:37:50;;;;;;;22.92;16.05;;;19.20;99.90;;;;;;5055468;28;20017;-85
2021/09/11 03:40:16;;;;;;;21.58;15.80;;;19.20;99.90;;;;;;5037440;28;20061;-86
2021/09/11 03:42:42;;;;;;;21.50;16.35;;;19.20;99.90;;;;;;5037117;28;20041;-86
2021/09/11 03:45:08;;;;;;;22.35;16.92;;;19.20;99.90;;;;;;5055466;28;20025;-86
2021/09/11 03:47:35;;;;;;;21.50;16.00;;;19.20;99.90;;;;;;5037229;28;20021;-85
2021/09/11 03:50:01;;;;;;;22.27;15.43;;;19.20;99.90;;;;;;5036722;28;20404;-86
2021/09/11 03:52:26;;;;;;;20.73;15.40;;;19.20;99.90;;;;;;5037126;28;20162;-86
2021/09/11 03:54:52;;;;;;;21.20;15.30;;;19.20;99.90;;;;;;5055111;28;20397;-86
2021/09/11 03:57:18;;;;;;;20.92;15.75;;;19.20;99.90;;;;;;5055349;28;20082;-86
2021/09/11 03:59:43;;;;;;;18.77;15.77;;;19.10;99.90;;;;;;5054476;28;20032;-86
2021/09/11 04:02:09;;;;;;;22.15;16.70;;;19.10;99.90;;;;;;5036682;28;20036;-86
2021/09/11 04:04:34;;;;;;;24.13;16.70;;;19.10;99.90;;;;;;5036988;28;20125;-86
2021/09/11 04:07:00;;;;;;;24.90;18.17;;;19.10;99.90;;;;;;5037274;28;20025;-86
2021/09/11 04:09:26;;;;;;;25.67;18.83;;;19.10;99.90;;;;;;5054523;28;20390;-86
2021/09/11 04:11:51;;;;;;;25.48;17.70;;;19.10;99.90;;;;;;5036953;28;20450;-86
2021/09/11 04:14:17;;;;;;;23.98;17.85;;;19.10;99.90;;;;;;5037019;28;20481;-86
2021/09/11 04:16:42;;;;;;;24.20;18.67;;;19.00;99.90;;;;;;5036796;28;20036;-86
2021/09/11 04:19:08;;;;;;;21.48;17.15;;;19.00;99.90;;;;;;5052863;28;20436;-86
2021/09/11 04:21:33;;;;;;;24.33;16.67;;;19.10;99.90;;;;;;5054036;28;20041;-86
2021/09/11 04:24:04;;;;;;;22.80;14.85;;;19.00;99.90;;;;;;5036744;28;20083;-86
2021/09/11 04:26:30;;;;;;;20.85;15.00;;;19.00;99.90;;;;;;5036620;28;20021;-85
2021/09/11 04:28:56;;;;;;;21.02;14.57;;;19.00;99.90;;;;;;5036310;28;20087;-86
2021/09/11 04:31:21;;;;;;;18.77;14.25;;;19.00;99.90;;;;;;5054792;28;20025;-86
2021/09/11 04:33:47;;;;;;;21.60;14.68;;;19.00;99.90;;;;;;5054633;28;20032;-85
2021/09/11 04:36:13;;;;;;;22.17;13.02;;;19.00;99.90;;;;;;5053478;28;20029;-86
2021/09/11 04:38:38;;;;;;;15.10;9.85;;;18.90;99.90;;;;;;5054539;28;20102;-86
2021/09/11 04:41:04;;;;;;;14.38;9.13;;;18.90;99.90;;;;;;5035874;28;20032;-86
2021/09/11 04:43:29;;;;;;;17.35;8.98;;;18.90;99.90;;;;;;5036389;28;20450;-86
2021/09/11 04:45:57;;;;;;;12.98;7.55;;;18.90;99.90;;;;;;5054237;28;20427;-85
2021/09/11 04:48:22;;;;;;;12.23;7.05;;;18.80;99.90;;;;;;5036071;28;20491;-86
2021/09/11 04:50:48;;;;;;;12.10;6.85;;;18.80;99.90;;;;;;5053377;28;20028;-86
2021/09/11 04:53:14;;;;;;;11.68;6.80;;;18.80;99.90;;;;;;5035924;28;20086;-86
2021/09/11 04:55:39;;;;;;;11.52;6.95;;;18.70;99.90;;;;;;5036189;28;20429;-86
2021/09/11 04:58:05;;;;;;;10.60;6.05;;;18.80;99.90;;;;;;5036585;28;20025;-86
2021/09/11 05:00:31;;;;;;;10.60;6.32;;;18.80;99.90;;;;;;5035614;28;20029;-86
2021/09/11 05:03:00;;;;;;;13.13;6.70;;;18.70;99.90;;;;;;5035722;28;20124;-86
2021/09/11 05:05:26;;;;;;;;;;;18.70;99.90;;;;;;5037032;28;20025;-86
2021/09/11 05:07:57;;;;;;;10.70;7.45;;;18.70;99.90;;;;;;5036142;28;19912;-86
2021/09/11 05:10:22;;;;;;;11.57;7.38;;;18.70;99.90;;;;;;5035655;28;20025;-86
2021/09/11 05:12:49;;;;;;;11.48;7.47;;;18.80;99.90;;;;;;5035760;28;20032;-86
2021/09/11 05:15:15;;;;;;;11.23;6.82;;;18.80;99.90;;;;;;5053658;28;20021;-86
2021/09/11 05:17:41;;;;;;;12.13;7.93;;;18.80;99.90;;;;;;5053744;28;20407;-86
2021/09/11 05:20:07;;;;;;;14.35;8.77;;;18.80;99.90;;;;;;5035232;28;20316;-86
2021/09/11 05:22:32;;;;;;;11.25;7.57;;;18.80;99.90;;;;;;5035406;28;20017;-86
2021/09/11 05:24:58;;;;;;;10.20;7.00;;;18.80;99.90;;;;;;5035704;28;20113;-86
2021/09/11 05:27:23;;;;;;;15.52;7.55;;;18.80;99.90;;;;;;5053444;28;20040;-85
2021/09/11 05:29:51;;;;;;;11.02;6.25;;;18.80;99.90;;;;;;5035143;28;20028;-85
2021/09/11 05:32:17;;;;;;;10.57;6.43;;;18.80;99.90;;;;;;5035314;28;20021;-86
2021/09/11 05:34:43;;;;;;;11.18;6.10;;;18.80;99.90;;;;;;5052480;28;20028;-85
2021/09/11 05:37:08;;;;;;;11.07;6.65;;;18.80;99.90;;;;;;5035304;28;20490;-86
2021/09/11 05:39:34;;;;;;;10.70;6.53;;;18.80;99.90;;;;;;5034937;28;20437;-85
2021/09/11 05:41:59;;;;;;;11.63;7.28;;;18.80;99.90;;;;;;5077763;22;20041;-89
2021/09/11 05:44:25;;;;;;;11.45;6.78;;;18.80;99.90;;;;;;5036533;28;20033;-90
2021/09/11 05:46:51;;;;;;;13.27;7.10;;;18.80;99.90;;;;;;5037675;28;20017;-90
2021/09/11 05:49:20;;;;;;;11.50;6.47;;;18.80;99.90;;;;;;5035768;28;20021;-89
2021/09/11 05:51:45;;;;;;;10.13;5.97;;;18.80;99.90;;;;;;5035581;28;20032;-90
2021/09/11 05:54:11;;;;;;;8.57;5.47;;;18.70;99.90;;;;;;5035517;28;20033;-88
2021/09/11 05:56:37;;;;;;;12.27;6.00;;;18.70;99.90;;;;;;5053167;28;20025;-88
2021/09/11 05:59:02;;;;;;;6.93;5.40;;;18.70;99.90;;;;;;5052477;28;20021;-89
2021/09/11 06:01:28;;;;;;;8.82;5.57;;;18.70;99.90;;;;;;5035171;28;20453;-89
2021/09/11 06:03:54;;;;;;;9.52;4.93;;;18.70;99.90;;;;;;5035170;28;20028;-88
2021/09/11 06:06:19;;;;;;;6.90;5.05;;;18.70;99.90;;;;;;5035260;28;20485;-89
2021/09/11 06:08:45;;;;;;;8.15;5.00;;;18.60;99.90;;;;;;5035456;28;20116;-89
2021/09/11 06:11:11;;;;;;;7.88;4.45;;;18.60;99.90;;;;;;5035202;28;20052;-89
2021/09/11 06:13:36;;;;;;;7.45;4.40;;;18.60;99.90;;;;;;5034999;28;20033;-90
2021/09/11 06:16:03;;;;;;;6.72;3.78;;;18.60;99.90;;;;;;5034893;28;20037;-88
2021/09/11 06:18:29;;;;;;;7.88;3.65;;;18.60;99.90;;;;;;5034668;28;20379;-88
2021/09/11 06:20:54;;;;;;;8.25;3.88;;;18.60;99.90;;;;;;5034109;28;20123;-89
2021/09/11 06:23:20;;;;;;;8.27;4.20;;;18.60;99.90;;;;;;5052853;28;20488;-89
2021/09/11 06:25:49;;;;;;;9.80;4.95;;;18.60;99.90;;;;;;5034921;28;20024;-90
2021/09/11 06:28:14;;;;;;;9.80;4.30;;;18.60;99.90;;;;;;5035077;28;20029;-89
2021/09/11 06:30:40;;;;;;;10.70;4.80;;;18.60;99.90;;;;;;5034475;28;20025;-89
2021/09/11 06:33:06;;;;;;;12.02;4.97;;;18.70;99.90;;;;;;5034662;28;20029;-90
2021/09/11 06:35:32;;;;;;;9.20;4.65;;;18.70;99.90;;;;;;5034908;28;20032;-89
2021/09/11 06:37:58;;;;;;;10.90;4.88;;;18.70;99.90;;;;;;5052531;28;20025;-90
2021/09/11 06:40:23;;;;;;;9.75;5.00;;;18.80;99.90;;;;;;5034170;28;20032;-90
2021/09/11 06:42:49;;;;;;;13.00;5.30;;;18.70;99.90;;;;;;5034278;28;20389;-90
2021/09/11 06:45:15;;;;;;;11.27;5.40;;;18.80;99.90;;;;;;5034749;28;20040;-90
2021/09/11 06:47:41;;;;;;;8.75;5.40;;;18.80;99.90;;;;;;5034526;28;20055;-90
2021/09/11 06:50:07;;;;;;;9.65;5.03;;;18.80;99.90;;;;;;5034632;28;20426;-90
2021/09/11 06:52:33;;;;;;;10.48;4.97;;;18.80;99.90;;;;;;5034470;28;20494;-91
2021/09/11 06:54:59;;;;;;;8.80;3.75;;;18.80;99.90;;;;;;5034342;28;20028;-91
2021/09/11 06:57:24;;;;;;;9.10;4.07;;;18.80;99.90;;;;;;5034272;28;20036;-90
2021/09/11 06:59:50;;;;;;;7.35;4.10;;;18.70;99.90;;;;;;5034239;28;20021;-90
2021/09/11 07:02:15;;;;;;;8.30;3.85;;;18.70;99.90;;;;;;5034168;28;20389;-90
2021/09/11 07:04:41;;;;;;;8.40;4.72;;;18.70;99.90;;;;;;5034278;28;20501;-90
2021/09/11 07:07:07;;;;;;;9.00;4.03;;;18.80;99.90;;;;;;5034428;28;20025;-90
2021/09/11 07:09:33;;;;;;;9.98;4.53;;;18.80;99.90;;;;;;5034199;28;20222;-90
2021/09/11 07:11:59;;;;;;;7.07;3.60;;;18.80;99.90;;;;;;5034018;28;20112;-90
2021/09/11 07:14:24;;;;;;;9.80;4.25;;;18.80;99.90;;;;;;5034224;28;20029;-90
2021/09/11 07:16:50;;;;;;;8.00;4.03;;;18.80;99.90;;;;;;5034256;28;20393;-91
2021/09/11 07:19:16;;;;;;;7.10;3.60;;;18.90;99.90;;;;;;5036582;28;20456;-89
2021/09/11 07:21:41;;;;;;;7.43;4.10;;;18.90;99.90;;;;;;5035698;28;20124;-91
2021/09/11 07:24:07;;;;;;;7.43;4.00;;;18.90;99.90;;;;;;5035525;28;20029;-90
2021/09/11 07:26:33;;;;;;;8.13;4.35;;;18.90;99.90;;;;;;5035279;28;20028;-91
2021/09/11 07:28:59;;;;;;;6.30;3.65;;;18.90;99.90;;;;;;5034179;28;20055;-90
2021/09/11 07:31:24;;;;;;;6.07;3.63;;;18.90;99.90;;;;;;5033906;28;20029;-91
2021/09/11 07:33:50;;;;;;;6.38;3.58;;;18.90;99.90;;;;;;5033676;28;20111;-91
2021/09/11 07:36:16;;;;;;;6.38;3.90;;;18.90;99.90;;;;;;5034790;28;20116;-90
2021/09/11 07:38:42;;;;;;;7.68;3.83;;;18.90;99.90;;;;;;5034102;28;20080;-90
2021/09/11 07:41:08;;;;;;;7.82;4.20;;;18.80;99.90;;;;;;5033444;28;20175;-92
2021/09/11 07:43:34;;;;;;;11.93;3.97;;;18.80;99.90;;;;;;5033652;28;20116;-91
2021/09/11 07:46:00;;;;;;;8.15;3.83;;;18.80;99.90;;;;;;5033855;28;20102;-90
2021/09/11 07:48:26;;;;;;;10.13;3.88;;;18.80;99.90;;;;;;5034874;28;20469;-90
2021/09/11 07:50:51;;;;;;;7.18;3.55;;;18.80;99.90;;;;;;5033684;28;20029;-91
2021/09/11 07:53:18;;;;;;;8.60;3.60;;;18.80;99.90;;;;;;5033799;28;20021;-91
2021/09/11 07:55:44;;;;;;;9.02;4.20;;;18.90;99.90;;;;;;5051633;28;20482;-91
2021/09/11 07:58:09;;;;;;;7.15;3.78;;;18.90;99.90;;;;;;5036087;28;20021;-91
2021/09/11 08:00:36;;;;;;;6.40;3.17;;;18.90;99.90;;;;;;5037780;28;20120;-91
2021/09/11 08:03:01;;;;;;;7.53;3.40;;;19.00;99.90;;;;;;5036895;28;20397;-91
2021/09/11 08:05:27;;;;;;;7.00;3.33;;;19.00;99.90;;;;;;5037405;28;20025;-91
2021/09/11 08:07:53;;;;;;;6.07;3.30;;;19.00;99.90;;;;;;5037253;28;20029;-91
2021/09/11 08:10:20;;;;;;;7.32;3.30;;;19.00;99.90;;;;;;5054608;28;20482;-91
2021/09/11 08:12:47;;;;;;;5.35;3.30;;;19.00;99.90;;;;;;5037023;28;20108;-90
2021/09/11 08:15:13;;;;;;;6.10;3.42;;;19.10;99.90;;;;;;5037090;28;20398;-90
2021/09/11 08:17:39;;;;;;;6.15;3.30;;;19.10;99.90;;;;;;5037228;28;20024;-91
2021/09/11 08:20:05;;;;;;;7.88;2.95;;;19.10;99.90;;;;;;5036566;28;20537;-91
2021/09/11 08:22:31;;;;;;;7.55;3.45;;;19.20;99.90;;;;;;5036775;28;20382;-90
2021/09/11 08:24:56;;;;;;;6.80;3.35;;;19.20;99.90;;;;;;5036908;28;20039;-91
2021/09/11 08:27:23;;;;;;;7.30;3.58;;;19.30;99.90;;;;;;5037678;28;20021;-91
2021/09/11 08:29:49;;;;;;;9.63;3.42;;;19.30;99.90;;;;;;5036389;28;20037;-90
2021/09/11 08:32:15;;;;;;;8.98;3.20;;;19.30;99.90;;;;;;5036509;28;20033;-90
2021/09/11 08:34:41;;;;;;;6.30;3.10;;;19.40;99.90;;;;;;5036709;28;20035;-90
2021/09/11 08:37:06;;;;;;;7.35;3.80;;;19.40;99.90;;;;;;5036664;28;20033;-90
2021/09/11 08:39:32;;;;;;;6.47;2.60;;;19.50;99.90;;;;;;5036264;28;20040;-90
2021/09/11 08:41:57;;;;;;;6.63;2.85;;;19.50;99.90;;;;;;5036293;28;20055;-91
2021/09/11 08:44:25;;;;;;;6.10;2.63;;;19.50;99.90;;;;;;5036513;28;20029;-91
2021/09/11 08:46:51;;;;;;;5.63;3.00;;;19.60;99.90;;;;;;5036546;28;20025;-90
2021/09/11 08:49:17;;;;;;;10.02;3.97;;;19.60;99.90;;;;;;5036672;28;20466;-91
2021/09/11 08:51:43;;;;;;;5.70;2.60;;;19.60;99.90;;;;;;5036464;28;20021;-90
2021/09/11 08:54:09;;;;;;;5.00;2.03;;;19.60;99.90;;;;;;5036337;28;20036;-91
2021/09/11 08:56:44;;;;;;;6.88;3.10;;;19.60;99.90;;;;;;5036496;28;20037;-91
2021/09/11 08:59:11;;;;;;;6.68;2.78;;;19.60;99.90;;;;;;5054268;28;20064;-91
2021/09/11 09:01:37;;;;;;;7.07;2.70;;;19.70;99.90;;;;;;5054236;28;20037;-89
2021/09/11 09:04:04;;;;;;;5.25;2.30;;;19.70;99.90;;;;;;5036911;28;20035;-89
2021/09/11 09:06:31;;;;;;;5.22;2.50;;;19.70;99.90;;;;;;5036387;28;20025;-89
2021/09/11 09:09:10;;;;;;;5.70;2.35;;;19.70;99.90;;;;;;5035085;28;20027;-89
2021/09/11 09:11:44;;;;;;;7.07;2.67;;;19.80;99.90;;;;;;5036667;28;20027;-89
2021/09/11 09:14:12;;;;;;;6.30;2.80;;;19.80;99.90;;;;;;5036722;28;20044;-89
2021/09/11 09:16:51;;;;;;;4.95;2.50;;;19.80;99.90;;;;;;5036438;28;20497;-89
2021/09/11 09:19:25;;;;;;;6.10;2.55;;;19.80;99.90;;;;;;5053684;28;20024;-91
2021/09/11 09:21:53;;;;;;;7.50;2.70;;;19.90;99.90;;;;;;5035808;28;20029;-90
2021/09/11 09:24:31;;;;;;;6.13;2.40;;;19.80;99.90;;;;;;5053460;28;20028;-91
2021/09/11 09:27:03;;;;;;;6.97;2.97;;;19.80;99.90;;;;;;5053711;28;20365;-91
2021/09/11 09:29:29;;;;;;;4.82;2.80;;;19.80;99.90;;;;;;5035908;28;20025;-90
2021/09/11 09:31:59;;;;;;;5.82;2.80;;;19.80;99.90;;;;;;5053641;28;20463;-91
2021/09/11 09:34:48;;;;;;;5.90;2.55;;;19.80;99.90;;;;;;5035909;28;20036;-90
2021/09/11 09:37:15;;;;;;;3.83;2.25;;;19.90;99.90;;;;;;5035971;28;20021;-90
2021/09/11 09:39:53;;;;;;;5.25;2.15;;;19.90;99.90;;;;;;5036078;28;20020;-90
2021/09/11 09:42:19;;;;;;;5.35;2.22;;;20.00;99.90;;;;;;5036209;28;20049;-90
2021/09/11 09:44:54;;;;;;;6.00;3.03;;;20.10;99.90;;;;;;5055900;28;20393;-89
2021/09/11 09:47:25;;;;;;;5.57;2.53;;;20.10;99.80;;;;;;5039096;28;20028;-89
2021/09/11 09:50:11;;;;;;;5.53;2.50;;;20.20;99.90;;;;;;5036787;28;20029;-89
2021/09/11 09:52:38;;;;;;;3.92;2.30;;;20.20;99.60;;;;;;5035314;28;20021;-89
2021/09/11 09:55:06;;;;;;;6.25;2.75;;;20.30;99.50;;;;;;5053127;28;20550;-89
2021/09/11 09:57:32;;;;;;;7.60;2.90;;;20.30;99.50;;;;;;5035330;28;20028;-91
2021/09/11 09:59:59;;;;;;;5.38;2.90;;;20.40;99.60;;;;;;5053299;28;20028;-89
2021/09/11 10:02:24;;;;;;;5.78;2.35;;;20.40;99.50;;;;;;5035618;28;20085;-91
2021/09/11 10:04:51;;;;;;;5.68;2.95;;;20.40;99.80;;;;;;5034924;28;20119;-89
2021/09/11 10:07:20;;;;;;;6.25;2.45;;;20.40;99.50;;;;;;5035152;28;20025;-90
2021/09/11 10:09:48;;;;;;;4.43;2.42;;;20.40;99.60;;;;;;5035190;28;20027;-90
2021/09/11 10:12:35;;;;;;;5.43;2.60;;;20.40;99.40;;;;;;5035202;28;20028;-91
2021/09/11 10:15:29;;;;;;;5.10;2.90;;;20.40;99.40;;;;;;5035072;28;20382;-90
2021/09/11 10:17:56;;;;;;;8.23;3.90;;;20.50;99.50;;;;;;5052879;28;20398;-90
2021/09/11 10:20:25;;;;;;;4.30;2.40;;;20.50;99.50;;;;;;5034721;28;20047;-90
2021/09/11 10:23:02;;;;;;;;;;;20.50;99.20;;;;;;5035058;28;20078;-90
2021/09/11 10:25:48;;;;;;;5.33;2.80;;;20.50;99.10;;;;;;5051571;28;19912;-89
2021/09/11 10:28:21;;;;;;;5.63;3.10;;;20.50;99.70;;;;;;5035020;28;20038;-91
2021/09/11 10:31:05;;;;;;;6.78;3.15;;;20.60;99.90;;;;;;5034922;28;20024;-89
2021/09/11 10:33:41;;;;;;;4.97;2.90;;;20.60;99.90;;;;;;5034788;28;20032;-89
2021/09/11 10:36:31;;;;;;;8.02;3.80;;;20.60;99.90;;;;;;5034717;28;20021;-90
2021/09/11 10:39:07;;;;;;;7.00;4.13;;;20.60;99.90;;;;;;5027969;28;20033;-91
2021/09/11 10:41:33;;;;;;;6.88;3.35;;;20.60;99.90;;;;;;5034491;28;20025;-90
2021/09/11 10:44:05;;;;;;;6.07;3.22;;;20.70;99.90;;;;;;5034789;28;20367;-90
2021/09/11 10:46:56;;;;;;;7.57;3.60;;;20.70;99.90;;;;;;5034624;28;20032;-91
2021/09/11 10:49:35;;;;;;;6.60;3.22;;;20.70;99.90;;;;;;5034859;28;20032;-89
2021/09/11 10:52:04;;;;;;;7.65;2.90;;;20.70;99.90;;;;;;5034572;28;20025;-90
2021/09/11 10:54:32;;;;;;;7.80;3.45;;;20.80;99.90;;;;;;5034385;28;20420;-89
2021/09/11 10:57:01;;;;;;;6.70;3.33;;;20.70;99.90;;;;;;5034399;28;20029;-91
2021/09/11 10:59:29;;;;;;;9.80;4.68;;;20.70;99.90;;;;;;5034066;28;20489;-91
2021/09/11 11:02:20;;;;;;;6.65;3.13;;;20.70;99.90;;;;;;5034290;28;20041;-90
2021/09/11 11:04:48;;;;;;;8.73;3.95;;;20.70;99.90;;;;;;5034241;28;20025;-91
2021/09/11 11:07:15;;;;;;;7.43;3.47;;;20.60;99.90;;;;;;5034121;28;20025;-90
2021/09/11 11:09:47;;;;;;;6.32;3.15;;;20.60;99.90;;;;;;5034417;28;20032;-89
2021/09/11 11:12:22;;;;;;;6.25;3.03;;;20.60;99.90;;;;;;5034185;28;20385;-90
2021/09/11 11:14:48;;;;;;;7.28;3.22;;;20.60;99.90;;;;;;5036236;28;20021;-89
2021/09/11 11:17:18;;;;;;;6.15;3.03;;;20.60;99.90;;;;;;5052207;28;20049;-91
2021/09/11 11:19:47;;;;;;;5.55;3.22;;;20.60;99.90;;;;;;5034180;28;20075;-91
2021/09/11 11:22:29;;;;;;;5.68;2.60;;;20.70;99.90;;;;;;5034004;28;20025;-90
2021/09/11 11:24:55;;;;;;;7.03;3.50;;;20.70;99.90;;;;;;5035019;28;20032;-90
2021/09/11 11:27:26;;;;;;;8.07;3.40;;;20.70;99.90;;;;;;5051983;28;20051;-91
2021/09/11 11:29:53;;;;;;;5.65;3.60;;;20.70;99.90;;;;;;5033975;28;20027;-91
2021/09/11 11:32:22;;;;;;;5.85;3.10;;;20.80;99.90;;;;;;5035242;28;20135;-91
2021/09/11 11:34:54;;;;;;;;;;;20.80;99.90;;;;;;5038328;28;20510;-91
2021/09/11 11:37:21;;;;;;;6.05;3.17;;;20.70;99.90;;;;;;5038130;28;20315;-92
2021/09/11 11:39:47;;;;;;;5.70;3.55;;;20.80;99.90;;;;;;5037915;28;20052;-91
2021/09/11 11:42:12;;;;;;;7.30;3.53;;;20.80;99.90;;;;;;5038515;28;20413;-91
2021/09/11 11:44:39;;;;;;;5.75;3.50;;;20.80;99.90;;;;;;5038032;28;20119;-91
2021/09/11 11:47:23;;;;;;;7.22;3.88;;;20.80;99.90;;;;;;5037871;28;20051;-91
2021/09/11 11:49:51;;;;;;;5.65;3.90;;;20.90;99.90;;;;;;5037966;28;20449;-91
2021/09/11 11:52:18;;;;;;;6.72;3.30;;;20.90;99.90;;;;;;5038111;28;20108;-91
2021/09/11 11:54:46;;;;;;;6.47;3.10;;;21.00;99.80;;;;;;5037815;28;20478;-91
2021/09/11 11:57:22;;;;;;;4.65;3.33;;;21.10;99.40;;;;;;5038459;28;20401;-92
2021/09/11 11:59:59;;;;;;;5.25;3.40;;;21.10;99.50;;;;;;5037887;28;20025;-91
2021/09/11 12:02:29;;;;;;;5.28;3.70;;;21.10;99.60;;;;;;5037558;28;20040;-91
2021/09/11 12:05:23;;;;;;;7.85;3.88;;;21.20;99.20;;;;;;5044741;28;20100;-89
2021/09/11 12:08:00;;;;;;;6.53;3.30;;;21.20;99.40;;;;;;5038927;28;20024;-91
2021/09/11 12:10:28;;;;;;;6.45;3.20;;;21.10;99.70;;;;;;5037767;28;20417;-89
2021/09/11 12:13:15;;;;;;;6.57;3.80;;;21.10;99.80;;;;;;5055617;28;20028;-89
2021/09/11 12:15:41;;;;;;;6.82;3.58;;;21.10;99.80;;;;;;5036813;28;20128;-90
2021/09/11 12:18:14;;;;;;;7.53;4.65;;;21.10;99.70;;;;;;5055319;28;20067;-89
2021/09/11 12:21:06;;;;;;;5.97;3.65;;;21.10;99.90;;;;;;5054984;28;20099;-89
2021/09/11 12:23:33;;;;;;;5.45;3.53;;;21.10;99.90;;;;;;5055067;28;20064;-90
2021/09/11 12:29:26;;;;;;;5.55;3.67;;;21.20;99.70;;;;;;5058779;28;20048;-91
2021/09/11 12:31:54;;;;;;;6.30;3.90;;;21.20;99.90;;;;;;5037078;28;20032;-91
2021/09/11 12:34:23;;;;;;;8.65;3.88;;;21.10;99.90;;;;;;5037015;28;20025;-91
2021/09/11 12:37:00;;;;;;;6.13;3.33;;;21.10;99.90;;;;;;5037020;28;20049;-91
2021/09/11 12:39:28;;;;;;;5.93;3.13;;;21.20;99.90;;;;;;5036890;28;20113;-91
2021/09/11 12:41:57;;;;;;;4.85;2.88;;;21.20;99.90;;;;;;5036905;28;20120;-90
2021/09/11 12:44:25;;;;;;;4.95;3.28;;;21.30;99.60;;;;;;5036559;28;20033;-91
2021/09/11 12:47:00;;;;;;;4.97;2.83;;;21.30;99.30;;;;;;5037865;28;20024;-91